Ridgeway, Michigan
Current Conditions -  °F | °C
As of 10:53 AM on Sunday 25 Jan 2015 (Local Time) from KADG Reporting Station
Light Snow Light Snow  
Wind Chill: 14°   Ceiling: 4200
Heat Index: 25°   Visibility: 3mi
Dew Point: 21°   Wind: 13mph
Humidity: 85%   Direction: 90°E
Pressure: 29.87"   Gusts: NA
Location:  41.99°N, 83.86°W
Report Text: KADG 251553Z AUTO 09011KT 3SM -SN BR FEW013 OVC042 M04/M06 A2987 RMK AO2 SLP125 P0000 T10391061
Loading
Personal Weather Stations






























Interactive Weather Map New forecast layout! Learn more

10-Day Weather Forecast

Advertisements
Track Severe Weather on mobile